sensor_id;sensor_type;location;lat;lon;timestamp;P1;durP1;ratioP1;P2;durP2;ratioP2
13263;SDS011;6700;51.988;7.646;2023-02-17T00:01:52;56.40;;;46.07;;
13263;SDS011;6700;51.988;7.646;2023-02-17T00:04:19;54.00;;;42.30;;
13263;SDS011;6700;51.988;7.646;2023-02-17T00:06:46;63.87;;;45.43;;
13263;SDS011;6700;51.988;7.646;2023-02-17T00:09:13;58.20;;;44.03;;
13263;SDS011;6700;51.988;7.646;2023-02-17T00:11:41;57.97;;;44.60;;
13263;SDS011;6700;51.988;7.646;2023-02-17T00:14:09;58.30;;;43.03;;
13263;SDS011;6700;51.988;7.646;2023-02-17T00:16:37;58.83;;;44.70;;
13263;SDS011;6700;51.988;7.646;2023-02-17T00:19:05;51.20;;;41.33;;
13263;SDS011;6700;51.988;7.646;2023-02-17T00:21:54;59.33;;;41.20;;
13263;SDS011;6700;51.988;7.646;2023-02-17T00:24:22;57.20;;;42.73;;
13263;SDS011;6700;51.988;7.646;2023-02-17T00:26:49;50.73;;;40.30;;
13263;SDS011;6700;51.988;7.646;2023-02-17T00:29:16;51.70;;;40.37;;
13263;SDS011;6700;51.988;7.646;2023-02-17T00:31:43;50.97;;;38.17;;
13263;SDS011;6700;51.988;7.646;2023-02-17T00:34:11;46.73;;;38.50;;
13263;SDS011;6700;51.988;7.646;2023-02-17T00:36:38;47.77;;;38.20;;
13263;SDS011;6700;51.988;7.646;2023-02-17T00:39:06;48.50;;;36.33;;
13263;SDS011;6700;51.988;7.646;2023-02-17T00:41:33;45.80;;;35.47;;
13263;SDS011;6700;51.988;7.646;2023-02-17T00:44:00;44.90;;;34.23;;
13263;SDS011;6700;51.988;7.646;2023-02-17T00:46:28;41.77;;;33.33;;
13263;SDS011;6700;51.988;7.646;2023-02-17T00:48:55;43.73;;;33.10;;
13263;SDS011;6700;51.988;7.646;2023-02-17T00:51:22;43.47;;;32.60;;
13263;SDS011;6700;51.988;7.646;2023-02-17T00:53:50;40.17;;;31.73;;
13263;SDS011;6700;51.988;7.646;2023-02-17T00:56:17;43.40;;;31.53;;
13263;SDS011;6700;51.988;7.646;2023-02-17T00:58:44;40.17;;;30.80;;
13263;SDS011;6700;51.988;7.646;2023-02-17T01:01:11;39.33;;;30.57;;
13263;SDS011;6700;51.988;7.646;2023-02-17T01:03:39;41.30;;;30.70;;
13263;SDS011;6700;51.988;7.646;2023-02-17T01:06:08;37.13;;;29.47;;
13263;SDS011;6700;51.988;7.646;2023-02-17T01:08:35;36.27;;;29.83;;
13263;SDS011;6700;51.988;7.646;2023-02-17T01:11:02;34.10;;;27.90;;
13263;SDS011;6700;51.988;7.646;2023-02-17T01:13:29;33.23;;;27.43;;
13263;SDS011;6700;51.988;7.646;2023-02-17T01:15:56;36.83;;;28.40;;
13263;SDS011;6700;51.988;7.646;2023-02-17T01:18:24;35.17;;;26.10;;
13263;SDS011;6700;51.988;7.646;2023-02-17T01:20:51;32.13;;;26.27;;
13263;SDS011;6700;51.988;7.646;2023-02-17T01:23:18;35.13;;;26.83;;
13263;SDS011;6700;51.988;7.646;2023-02-17T01:25:45;36.13;;;27.27;;
13263;SDS011;6700;51.988;7.646;2023-02-17T01:28:15;33.50;;;25.37;;
13263;SDS011;6700;51.988;7.646;2023-02-17T01:30:44;29.20;;;25.03;;
13263;SDS011;6700;51.988;7.646;2023-02-17T01:33:10;29.43;;;23.97;;
13263;SDS011;6700;51.988;7.646;2023-02-17T01:35:37;34.43;;;25.27;;
13263;SDS011;6700;51.988;7.646;2023-02-17T01:38:04;27.80;;;23.50;;
13263;SDS011;6700;51.988;7.646;2023-02-17T01:40:31;30.47;;;23.37;;
13263;SDS011;6700;51.988;7.646;2023-02-17T01:42:57;26.20;;;22.00;;
13263;SDS011;6700;51.988;7.646;2023-02-17T01:45:36;26.57;;;22.23;;
13263;SDS011;6700;51.988;7.646;2023-02-17T01:48:11;26.77;;;23.13;;
13263;SDS011;6700;51.988;7.646;2023-02-17T01:50:43;29.83;;;21.87;;
13263;SDS011;6700;51.988;7.646;2023-02-17T01:53:14;28.67;;;22.40;;
13263;SDS011;6700;51.988;7.646;2023-02-17T01:55:45;26.80;;;22.67;;
13263;SDS011;6700;51.988;7.646;2023-02-17T01:58:14;27.70;;;22.13;;
13263;SDS011;6700;51.988;7.646;2023-02-17T02:00:44;24.90;;;22.20;;
13263;SDS011;6700;51.988;7.646;2023-02-17T02:03:13;28.63;;;22.60;;
13263;SDS011;6700;51.988;7.646;2023-02-17T02:05:41;27.40;;;22.43;;
13263;SDS011;6700;51.988;7.646;2023-02-17T02:08:09;27.47;;;22.60;;
13263;SDS011;6700;51.988;7.646;2023-02-17T02:10:37;24.60;;;22.00;;
13263;SDS011;6700;51.988;7.646;2023-02-17T02:13:04;27.30;;;22.07;;
13263;SDS011;6700;51.988;7.646;2023-02-17T02:15:34;26.17;;;21.87;;
13263;SDS011;6700;51.988;7.646;2023-02-17T02:34:02;28.83;;;21.73;;
13263;SDS011;6700;51.988;7.646;2023-02-17T02:36:32;25.87;;;20.70;;
13263;SDS011;6700;51.988;7.646;2023-02-17T02:39:04;26.13;;;20.27;;
13263;SDS011;6700;51.988;7.646;2023-02-17T02:41:35;26.90;;;21.33;;
13263;SDS011;6700;51.988;7.646;2023-02-17T02:44:07;24.77;;;21.37;;
13263;SDS011;6700;51.988;7.646;2023-02-17T02:46:34;27.63;;;21.00;;
13263;SDS011;6700;51.988;7.646;2023-02-17T02:49:01;24.80;;;20.67;;
13263;SDS011;6700;51.988;7.646;2023-02-17T02:51:36;26.10;;;21.03;;
13263;SDS011;6700;51.988;7.646;2023-02-17T02:56:37;22.37;;;19.60;;
13263;SDS011;6700;51.988;7.646;2023-02-17T03:01:41;23.70;;;20.10;;
13263;SDS011;6700;51.988;7.646;2023-02-17T03:06:47;24.10;;;19.20;;
13263;SDS011;6700;51.988;7.646;2023-02-17T03:09:17;23.13;;;19.30;;
13263;SDS011;6700;51.988;7.646;2023-02-17T03:11:45;24.60;;;19.53;;
13263;SDS011;6700;51.988;7.646;2023-02-17T03:14:15;22.53;;;18.33;;
13263;SDS011;6700;51.988;7.646;2023-02-17T03:16:42;20.97;;;18.67;;
13263;SDS011;6700;51.988;7.646;2023-02-17T03:19:10;22.80;;;18.27;;
13263;SDS011;6700;51.988;7.646;2023-02-17T03:21:40;24.50;;;19.43;;
13263;SDS011;6700;51.988;7.646;2023-02-17T03:24:09;20.63;;;18.37;;
13263;SDS011;6700;51.988;7.646;2023-02-17T03:26:36;25.53;;;20.10;;
13263;SDS011;6700;51.988;7.646;2023-02-17T03:29:03;23.00;;;17.80;;
13263;SDS011;6700;51.988;7.646;2023-02-17T03:31:30;24.50;;;19.63;;
13263;SDS011;6700;51.988;7.646;2023-02-17T03:33:58;22.07;;;18.20;;
13263;SDS011;6700;51.988;7.646;2023-02-17T03:36:25;21.03;;;18.80;;
13263;SDS011;6700;51.988;7.646;2023-02-17T03:38:55;25.97;;;19.97;;
13263;SDS011;6700;51.988;7.646;2023-02-17T03:41:22;20.70;;;18.37;;
13263;SDS011;6700;51.988;7.646;2023-02-17T03:43:49;23.60;;;19.90;;
13263;SDS011;6700;51.988;7.646;2023-02-17T03:46:16;22.47;;;20.07;;
13263;SDS011;6700;51.988;7.646;2023-02-17T03:48:43;24.03;;;19.67;;
13263;SDS011;6700;51.988;7.646;2023-02-17T03:51:18;23.60;;;20.47;;
13263;SDS011;6700;51.988;7.646;2023-02-17T03:53:46;21.60;;;19.40;;
13263;SDS011;6700;51.988;7.646;2023-02-17T03:56:14;22.90;;;20.40;;
13263;SDS011;6700;51.988;7.646;2023-02-17T03:58:41;21.47;;;19.03;;
13263;SDS011;6700;51.988;7.646;2023-02-17T04:01:09;24.07;;;19.27;;
13263;SDS011;6700;51.988;7.646;2023-02-17T04:03:37;22.53;;;19.40;;
13263;SDS011;6700;51.988;7.646;2023-02-17T04:06:04;22.30;;;18.67;;
13263;SDS011;6700;51.988;7.646;2023-02-17T04:08:32;20.97;;;18.77;;
13263;SDS011;6700;51.988;7.646;2023-02-17T04:11:00;21.60;;;19.27;;
13263;SDS011;6700;51.988;7.646;2023-02-17T04:13:28;19.60;;;17.67;;
13263;SDS011;6700;51.988;7.646;2023-02-17T04:15:54;20.63;;;18.53;;
13263;SDS011;6700;51.988;7.646;2023-02-17T04:18:21;22.07;;;18.43;;
13263;SDS011;6700;51.988;7.646;2023-02-17T04:20:49;19.67;;;17.57;;
13263;SDS011;6700;51.988;7.646;2023-02-17T04:23:16;19.80;;;17.70;;
13263;SDS011;6700;51.988;7.646;2023-02-17T04:25:44;17.93;;;16.10;;
13263;SDS011;6700;51.988;7.646;2023-02-17T04:28:11;19.73;;;17.33;;
13263;SDS011;6700;51.988;7.646;2023-02-17T04:30:41;18.50;;;16.03;;
13263;SDS011;6700;51.988;7.646;2023-02-17T04:33:09;16.97;;;15.40;;
13263;SDS011;6700;51.988;7.646;2023-02-17T04:35:36;17.33;;;15.47;;
13263;SDS011;6700;51.988;7.646;2023-02-17T04:38:03;18.40;;;16.50;;
13263;SDS011;6700;51.988;7.646;2023-02-17T04:40:31;17.40;;;15.47;;
13263;SDS011;6700;51.988;7.646;2023-02-17T04:42:58;19.07;;;16.50;;
13263;SDS011;6700;51.988;7.646;2023-02-17T04:45:24;17.53;;;15.73;;
13263;SDS011;6700;51.988;7.646;2023-02-17T04:47:51;19.10;;;15.43;;
13263;SDS011;6700;51.988;7.646;2023-02-17T04:50:19;17.07;;;14.97;;
13263;SDS011;6700;51.988;7.646;2023-02-17T04:52:46;19.37;;;16.20;;
13263;SDS011;6700;51.988;7.646;2023-02-17T04:55:13;17.03;;;15.23;;
13263;SDS011;6700;51.988;7.646;2023-02-17T04:57:40;17.00;;;14.97;;
13263;SDS011;6700;51.988;7.646;2023-02-17T05:00:07;15.43;;;13.83;;
13263;SDS011;6700;51.988;7.646;2023-02-17T05:02:34;17.20;;;15.40;;
13263;SDS011;6700;51.988;7.646;2023-02-17T05:05:00;15.93;;;13.87;;
13263;SDS011;6700;51.988;7.646;2023-02-17T05:07:27;16.57;;;13.80;;
13263;SDS011;6700;51.988;7.646;2023-02-17T05:09:54;15.10;;;13.60;;
13263;SDS011;6700;51.988;7.646;2023-02-17T05:12:20;15.47;;;13.43;;
13263;SDS011;6700;51.988;7.646;2023-02-17T05:14:50;15.97;;;13.63;;
13263;SDS011;6700;51.988;7.646;2023-02-17T05:17:18;15.47;;;13.87;;
13263;SDS011;6700;51.988;7.646;2023-02-17T05:19:47;14.53;;;13.03;;
13263;SDS011;6700;51.988;7.646;2023-02-17T05:22:14;18.17;;;14.03;;
13263;SDS011;6700;51.988;7.646;2023-02-17T05:24:41;16.93;;;14.33;;
13263;SDS011;6700;51.988;7.646;2023-02-17T05:27:11;15.13;;;12.77;;
13263;SDS011;6700;51.988;7.646;2023-02-17T05:29:38;13.13;;;11.70;;
13263;SDS011;6700;51.988;7.646;2023-02-17T05:32:07;19.30;;;12.63;;
13263;SDS011;6700;51.988;7.646;2023-02-17T05:34:36;13.27;;;11.87;;
13263;SDS011;6700;51.988;7.646;2023-02-17T05:37:06;15.20;;;11.97;;
13263;SDS011;6700;51.988;7.646;2023-02-17T05:39:35;12.67;;;11.37;;
13263;SDS011;6700;51.988;7.646;2023-02-17T05:42:05;12.73;;;11.43;;
13263;SDS011;6700;51.988;7.646;2023-02-17T05:44:34;11.87;;;10.67;;
13263;SDS011;6700;51.988;7.646;2023-02-17T05:47:03;11.20;;;10.00;;
13263;SDS011;6700;51.988;7.646;2023-02-17T05:49:32;10.70;;;9.63;;
13263;SDS011;6700;51.988;7.646;2023-02-17T05:52:04;11.33;;;10.17;;
13263;SDS011;6700;51.988;7.646;2023-02-17T05:54:34;10.10;;;9.10;;
13263;SDS011;6700;51.988;7.646;2023-02-17T05:57:06;11.00;;;9.77;;
13263;SDS011;6700;51.988;7.646;2023-02-17T05:59:37;9.97;;;8.97;;
13263;SDS011;6700;51.988;7.646;2023-02-17T06:02:06;10.00;;;9.07;;
13263;SDS011;6700;51.988;7.646;2023-02-17T06:04:36;9.73;;;8.73;;
13263;SDS011;6700;51.988;7.646;2023-02-17T06:07:05;10.77;;;9.67;;
13263;SDS011;6700;51.988;7.646;2023-02-17T06:09:34;9.77;;;8.77;;
13263;SDS011;6700;51.988;7.646;2023-02-17T06:12:04;11.73;;;9.80;;
13263;SDS011;6700;51.988;7.646;2023-02-17T06:14:33;11.33;;;9.63;;
13263;SDS011;6700;51.988;7.646;2023-02-17T06:17:08;10.53;;;9.43;;
13263;SDS011;6700;51.988;7.646;2023-02-17T06:19:38;11.57;;;9.60;;
13263;SDS011;6700;51.988;7.646;2023-02-17T06:22:07;9.93;;;8.90;;
13263;SDS011;6700;51.988;7.646;2023-02-17T06:24:35;9.83;;;8.83;;
13263;SDS011;6700;51.988;7.646;2023-02-17T06:27:03;9.60;;;8.60;;
13263;SDS011;6700;51.988;7.646;2023-02-17T06:29:32;8.83;;;7.93;;
13263;SDS011;6700;51.988;7.646;2023-02-17T06:32:01;12.20;;;8.93;;
13263;SDS011;6700;51.988;7.646;2023-02-17T06:34:29;10.23;;;9.27;;
13263;SDS011;6700;51.988;7.646;2023-02-17T06:36:57;9.97;;;8.97;;
13263;SDS011;6700;51.988;7.646;2023-02-17T06:39:25;9.63;;;8.80;;
13263;SDS011;6700;51.988;7.646;2023-02-17T06:41:53;10.90;;;9.83;;
13263;SDS011;6700;51.988;7.646;2023-02-17T06:44:24;10.70;;;9.70;;
13263;SDS011;6700;51.988;7.646;2023-02-17T06:46:53;10.27;;;9.27;;
13263;SDS011;6700;51.988;7.646;2023-02-17T06:49:24;10.77;;;9.77;;
13263;SDS011;6700;51.988;7.646;2023-02-17T06:51:54;15.70;;;10.67;;
13263;SDS011;6700;51.988;7.646;2023-02-17T06:54:25;10.70;;;9.70;;
13263;SDS011;6700;51.988;7.646;2023-02-17T06:56:54;10.67;;;9.57;;
13263;SDS011;6700;51.988;7.646;2023-02-17T06:59:23;10.33;;;9.43;;
13263;SDS011;6700;51.988;7.646;2023-02-17T07:01:51;11.87;;;10.77;;
13263;SDS011;6700;51.988;7.646;2023-02-17T07:04:19;11.50;;;10.40;;
13263;SDS011;6700;51.988;7.646;2023-02-17T07:06:48;10.43;;;9.33;;
13263;SDS011;6700;51.988;7.646;2023-02-17T07:09:16;11.23;;;10.13;;
13263;SDS011;6700;51.988;7.646;2023-02-17T07:11:47;10.50;;;9.00;;
13263;SDS011;6700;51.988;7.646;2023-02-17T07:14:16;11.10;;;9.90;;
13263;SDS011;6700;51.988;7.646;2023-02-17T07:16:44;11.97;;;9.90;;
13263;SDS011;6700;51.988;7.646;2023-02-17T07:19:12;11.00;;;9.60;;
13263;SDS011;6700;51.988;7.646;2023-02-17T07:21:40;14.03;;;11.20;;
13263;SDS011;6700;51.988;7.646;2023-02-17T07:24:09;11.90;;;10.03;;
13263;SDS011;6700;51.988;7.646;2023-02-17T07:26:38;12.23;;;10.10;;
13263;SDS011;6700;51.988;7.646;2023-02-17T07:29:08;11.63;;;10.30;;
13263;SDS011;6700;51.988;7.646;2023-02-17T07:31:37;10.57;;;9.47;;
13263;SDS011;6700;51.988;7.646;2023-02-17T07:34:04;11.03;;;9.80;;
13263;SDS011;6700;51.988;7.646;2023-02-17T07:36:31;11.00;;;9.93;;
13263;SDS011;6700;51.988;7.646;2023-02-17T07:38:58;12.23;;;9.67;;
13263;SDS011;6700;51.988;7.646;2023-02-17T07:41:25;11.17;;;9.97;;
13263;SDS011;6700;51.988;7.646;2023-02-17T07:43:54;11.83;;;9.83;;
13263;SDS011;6700;51.988;7.646;2023-02-17T07:46:22;11.87;;;10.30;;
13263;SDS011;6700;51.988;7.646;2023-02-17T07:48:49;10.47;;;9.23;;
13263;SDS011;6700;51.988;7.646;2023-02-17T07:51:18;10.23;;;8.90;;
13263;SDS011;6700;51.988;7.646;2023-02-17T07:53:47;11.40;;;10.20;;
13263;SDS011;6700;51.988;7.646;2023-02-17T07:56:15;13.77;;;10.10;;
13263;SDS011;6700;51.988;7.646;2023-02-17T07:58:44;11.30;;;10.10;;
13263;SDS011;6700;51.988;7.646;2023-02-17T08:01:18;11.23;;;9.40;;
13263;SDS011;6700;51.988;7.646;2023-02-17T08:03:49;10.53;;;9.43;;
13263;SDS011;6700;51.988;7.646;2023-02-17T08:06:20;13.37;;;10.67;;
13263;SDS011;6700;51.988;7.646;2023-02-17T08:08:49;11.57;;;9.77;;
13263;SDS011;6700;51.988;7.646;2023-02-17T08:11:36;12.20;;;9.70;;
13263;SDS011;6700;51.988;7.646;2023-02-17T08:14:23;12.17;;;10.77;;
13263;SDS011;6700;51.988;7.646;2023-02-17T08:16:52;12.97;;;10.17;;
13263;SDS011;6700;51.988;7.646;2023-02-17T08:19:19;11.57;;;10.37;;
13263;SDS011;6700;51.988;7.646;2023-02-17T08:21:46;11.30;;;9.93;;
13263;SDS011;6700;51.988;7.646;2023-02-17T08:24:13;13.67;;;9.80;;
13263;SDS011;6700;51.988;7.646;2023-02-17T08:26:41;13.33;;;10.80;;
13263;SDS011;6700;51.988;7.646;2023-02-17T08:29:08;12.07;;;9.80;;
13263;SDS011;6700;51.988;7.646;2023-02-17T08:31:35;13.27;;;10.50;;
13263;SDS011;6700;51.988;7.646;2023-02-17T08:34:03;13.70;;;12.00;;
13263;SDS011;6700;51.988;7.646;2023-02-17T08:36:33;11.77;;;10.57;;
13263;SDS011;6700;51.988;7.646;2023-02-17T08:39:03;15.17;;;10.93;;
13263;SDS011;6700;51.988;7.646;2023-02-17T08:41:33;14.90;;;10.97;;
13263;SDS011;6700;51.988;7.646;2023-02-17T08:44:01;11.30;;;10.17;;
13263;SDS011;6700;51.988;7.646;2023-02-17T08:46:33;13.60;;;10.53;;
13263;SDS011;6700;51.988;7.646;2023-02-17T08:49:00;11.53;;;9.90;;
13263;SDS011;6700;51.988;7.646;2023-02-17T08:51:27;15.03;;;10.67;;
13263;SDS011;6700;51.988;7.646;2023-02-17T08:53:55;13.53;;;10.80;;
13263;SDS011;6700;51.988;7.646;2023-02-17T08:56:23;14.23;;;11.13;;
13263;SDS011;6700;51.988;7.646;2023-02-17T08:58:51;12.87;;;11.50;;
13263;SDS011;6700;51.988;7.646;2023-02-17T09:01:18;11.77;;;10.27;;
13263;SDS011;6700;51.988;7.646;2023-02-17T09:03:47;12.97;;;10.73;;
13263;SDS011;6700;51.988;7.646;2023-02-17T09:06:15;15.67;;;10.90;;
13263;SDS011;6700;51.988;7.646;2023-02-17T09:08:44;12.73;;;10.70;;
13263;SDS011;6700;51.988;7.646;2023-02-17T09:11:14;14.27;;;10.80;;
13263;SDS011;6700;51.988;7.646;2023-02-17T09:13:42;13.07;;;10.47;;
13263;SDS011;6700;51.988;7.646;2023-02-17T09:16:10;11.57;;;10.37;;
13263;SDS011;6700;51.988;7.646;2023-02-17T09:18:37;12.57;;;9.77;;
13263;SDS011;6700;51.988;7.646;2023-02-17T09:21:07;12.47;;;11.23;;
13263;SDS011;6700;51.988;7.646;2023-02-17T09:23:35;12.90;;;10.37;;
13263;SDS011;6700;51.988;7.646;2023-02-17T09:26:03;13.10;;;10.57;;
13263;SDS011;6700;51.988;7.646;2023-02-17T09:28:33;13.07;;;11.33;;
13263;SDS011;6700;51.988;7.646;2023-02-17T09:33:43;12.07;;;10.03;;
13263;SDS011;6700;51.988;7.646;2023-02-17T09:36:13;17.23;;;10.90;;
13263;SDS011;6700;51.988;7.646;2023-02-17T09:38:41;22.87;;;11.97;;
13263;SDS011;6700;51.988;7.646;2023-02-17T09:41:17;18.37;;;11.40;;
13263;SDS011;6700;51.988;7.646;2023-02-17T09:43:49;13.83;;;10.47;;
13263;SDS011;6700;51.988;7.646;2023-02-17T09:48:50;12.27;;;10.80;;
13263;SDS011;6700;51.988;7.646;2023-02-17T09:51:25;13.23;;;10.60;;
13263;SDS011;6700;51.988;7.646;2023-02-17T09:56:38;11.10;;;9.83;;
13263;SDS011;6700;51.988;7.646;2023-02-17T09:59:13;11.33;;;9.87;;
13263;SDS011;6700;51.988;7.646;2023-02-17T10:01:45;10.97;;;9.87;;
13263;SDS011;6700;51.988;7.646;2023-02-17T10:04:15;11.00;;;9.87;;
13263;SDS011;6700;51.988;7.646;2023-02-17T10:06:48;13.20;;;9.90;;
13263;SDS011;6700;51.988;7.646;2023-02-17T10:09:31;10.27;;;9.20;;
13263;SDS011;6700;51.988;7.646;2023-02-17T10:12:04;10.10;;;9.10;;
13263;SDS011;6700;51.988;7.646;2023-02-17T10:14:41;10.93;;;9.17;;
13263;SDS011;6700;51.988;7.646;2023-02-17T10:17:25;11.40;;;9.20;;
13263;SDS011;6700;51.988;7.646;2023-02-17T10:19:58;10.13;;;9.20;;
13263;SDS011;6700;51.988;7.646;2023-02-17T10:22:27;8.80;;;8.00;;
13263;SDS011;6700;51.988;7.646;2023-02-17T10:24:57;10.37;;;9.27;;
13263;SDS011;6700;51.988;7.646;2023-02-17T10:27:40;8.97;;;8.07;;
13263;SDS011;6700;51.988;7.646;2023-02-17T10:35:52;9.27;;;8.03;;
13263;SDS011;6700;51.988;7.646;2023-02-17T10:40:53;9.17;;;7.67;;
13263;SDS011;6700;51.988;7.646;2023-02-17T10:43:26;8.80;;;7.80;;
13263;SDS011;6700;51.988;7.646;2023-02-17T10:45:55;8.13;;;6.90;;
13263;SDS011;6700;51.988;7.646;2023-02-17T10:48:33;10.67;;;8.80;;
13263;SDS011;6700;51.988;7.646;2023-02-17T10:51:03;12.17;;;8.17;;
13263;SDS011;6700;51.988;7.646;2023-02-17T10:53:33;8.67;;;7.30;;
13263;SDS011;6700;51.988;7.646;2023-02-17T11:01:10;11.37;;;7.37;;
13263;SDS011;6700;51.988;7.646;2023-02-17T11:03:38;9.73;;;7.50;;
13263;SDS011;6700;51.988;7.646;2023-02-17T11:11:21;10.13;;;9.10;;
13263;SDS011;6700;51.988;7.646;2023-02-17T11:13:56;8.30;;;7.07;;
13263;SDS011;6700;51.988;7.646;2023-02-17T11:16:39;7.90;;;7.20;;
13263;SDS011;6700;51.988;7.646;2023-02-17T11:19:29;8.23;;;7.43;;
13263;SDS011;6700;51.988;7.646;2023-02-17T11:22:02;7.83;;;7.03;;
13263;SDS011;6700;51.988;7.646;2023-02-17T11:24:34;7.73;;;7.07;;
13263;SDS011;6700;51.988;7.646;2023-02-17T11:27:06;7.77;;;7.07;;
13263;SDS011;6700;51.988;7.646;2023-02-17T11:29:36;8.53;;;7.30;;
13263;SDS011;6700;51.988;7.646;2023-02-17T11:32:06;7.80;;;6.97;;
13263;SDS011;6700;51.988;7.646;2023-02-17T11:34:38;7.03;;;6.40;;
13263;SDS011;6700;51.988;7.646;2023-02-17T11:39:42;9.60;;;7.23;;
13263;SDS011;6700;51.988;7.646;2023-02-17T11:44:45;7.13;;;6.43;;
13263;SDS011;6700;51.988;7.646;2023-02-17T11:57:37;9.67;;;6.60;;
13263;SDS011;6700;51.988;7.646;2023-02-17T12:13:38;7.77;;;6.43;;
13263;SDS011;6700;51.988;7.646;2023-02-17T12:16:36;8.37;;;7.03;;
13263;SDS011;6700;51.988;7.646;2023-02-17T12:19:18;9.43;;;7.40;;
13263;SDS011;6700;51.988;7.646;2023-02-17T12:24:47;7.37;;;6.63;;
13263;SDS011;6700;51.988;7.646;2023-02-17T12:30:16;8.40;;;6.77;;
13263;SDS011;6700;51.988;7.646;2023-02-17T12:35:17;7.10;;;6.40;;
13263;SDS011;6700;51.988;7.646;2023-02-17T12:37:49;7.97;;;7.03;;
13263;SDS011;6700;51.988;7.646;2023-02-17T12:40:30;9.13;;;8.27;;
13263;SDS011;6700;51.988;7.646;2023-02-17T12:43:13;8.13;;;7.40;;
13263;SDS011;6700;51.988;7.646;2023-02-17T12:45:45;8.10;;;7.33;;
13263;SDS011;6700;51.988;7.646;2023-02-17T12:50:56;9.17;;;7.33;;
13263;SDS011;6700;51.988;7.646;2023-02-17T12:53:37;9.03;;;8.23;;
13263;SDS011;6700;51.988;7.646;2023-02-17T12:56:11;9.20;;;8.40;;
13263;SDS011;6700;51.988;7.646;2023-02-17T12:58:50;11.30;;;8.90;;
13263;SDS011;6700;51.988;7.646;2023-02-17T13:01:18;9.73;;;8.83;;
13263;SDS011;6700;51.988;7.646;2023-02-17T13:03:49;9.00;;;8.20;;
13263;SDS011;6700;51.988;7.646;2023-02-17T13:06:24;9.57;;;8.67;;
13263;SDS011;6700;51.988;7.646;2023-02-17T13:08:57;9.67;;;8.80;;
13263;SDS011;6700;51.988;7.646;2023-02-17T13:11:31;9.90;;;9.00;;
13263;SDS011;6700;51.988;7.646;2023-02-17T13:14:11;10.23;;;9.20;;
13263;SDS011;6700;51.988;7.646;2023-02-17T13:16:51;9.70;;;8.90;;
13263;SDS011;6700;51.988;7.646;2023-02-17T13:19:32;10.50;;;9.60;;
13263;SDS011;6700;51.988;7.646;2023-02-17T13:22:00;10.67;;;9.57;;
13263;SDS011;6700;51.988;7.646;2023-02-17T13:24:37;10.23;;;9.33;;
13263;SDS011;6700;51.988;7.646;2023-02-17T13:27:19;11.87;;;10.10;;
13263;SDS011;6700;51.988;7.646;2023-02-17T13:32:26;12.27;;;11.07;;
13263;SDS011;6700;51.988;7.646;2023-02-17T13:34:59;12.80;;;11.53;;
13263;SDS011;6700;51.988;7.646;2023-02-17T13:37:43;12.50;;;11.23;;
13263;SDS011;6700;51.988;7.646;2023-02-17T13:42:41;13.53;;;11.13;;
13263;SDS011;6700;51.988;7.646;2023-02-17T13:45:12;12.23;;;10.97;;
13263;SDS011;6700;51.988;7.646;2023-02-17T13:47:45;12.53;;;11.33;;
13263;SDS011;6700;51.988;7.646;2023-02-17T13:52:55;11.53;;;10.33;;
13263;SDS011;6700;51.988;7.646;2023-02-17T13:55:24;12.13;;;11.03;;
13263;SDS011;6700;51.988;7.646;2023-02-17T13:57:54;11.63;;;10.43;;
13263;SDS011;6700;51.988;7.646;2023-02-17T14:00:25;12.10;;;11.00;;
13263;SDS011;6700;51.988;7.646;2023-02-17T14:02:58;12.87;;;10.70;;
13263;SDS011;6700;51.988;7.646;2023-02-17T14:05:42;12.37;;;11.17;;
13263;SDS011;6700;51.988;7.646;2023-02-17T14:08:20;12.50;;;11.27;;
13263;SDS011;6700;51.988;7.646;2023-02-17T14:10:53;11.93;;;10.80;;
13263;SDS011;6700;51.988;7.646;2023-02-17T14:13:21;11.33;;;10.27;;
13263;SDS011;6700;51.988;7.646;2023-02-17T14:15:49;11.60;;;10.47;;
13263;SDS011;6700;51.988;7.646;2023-02-17T14:18:35;12.53;;;10.83;;
13263;SDS011;6700;51.988;7.646;2023-02-17T14:21:09;9.80;;;8.90;;
13263;SDS011;6700;51.988;7.646;2023-02-17T14:23:41;10.43;;;9.50;;
13263;SDS011;6700;51.988;7.646;2023-02-17T14:26:14;9.37;;;8.47;;
13263;SDS011;6700;51.988;7.646;2023-02-17T14:28:50;8.57;;;7.73;;
13263;SDS011;6700;51.988;7.646;2023-02-17T14:31:19;7.70;;;7.00;;
13263;SDS011;6700;51.988;7.646;2023-02-17T14:33:59;8.10;;;6.23;;
13263;SDS011;6700;51.988;7.646;2023-02-17T14:36:29;6.80;;;6.13;;
13263;SDS011;6700;51.988;7.646;2023-02-17T14:39:04;7.47;;;5.93;;
13263;SDS011;6700;51.988;7.646;2023-02-17T14:41:38;7.67;;;5.57;;
13263;SDS011;6700;51.988;7.646;2023-02-17T14:44:04;5.50;;;5.00;;
13263;SDS011;6700;51.988;7.646;2023-02-17T14:46:32;6.47;;;5.63;;
13263;SDS011;6700;51.988;7.646;2023-02-17T14:48:59;5.73;;;4.63;;
13263;SDS011;6700;51.988;7.646;2023-02-17T14:51:33;5.47;;;4.80;;
13263;SDS011;6700;51.988;7.646;2023-02-17T14:54:02;6.00;;;5.40;;
13263;SDS011;6700;51.988;7.646;2023-02-17T14:56:37;6.47;;;4.77;;
13263;SDS011;6700;51.988;7.646;2023-02-17T14:59:10;5.57;;;5.03;;
13263;SDS011;6700;51.988;7.646;2023-02-17T15:01:38;5.23;;;4.73;;
13263;SDS011;6700;51.988;7.646;2023-02-17T15:04:06;5.73;;;5.13;;
13263;SDS011;6700;51.988;7.646;2023-02-17T15:06:42;6.20;;;4.83;;
13263;SDS011;6700;51.988;7.646;2023-02-17T15:09:16;5.53;;;5.03;;
13263;SDS011;6700;51.988;7.646;2023-02-17T15:11:46;5.57;;;5.07;;
13263;SDS011;6700;51.988;7.646;2023-02-17T15:14:16;6.53;;;5.93;;
13263;SDS011;6700;51.988;7.646;2023-02-17T15:16:47;8.17;;;6.00;;
13263;SDS011;6700;51.988;7.646;2023-02-17T15:19:16;7.13;;;6.40;;
13263;SDS011;6700;51.988;7.646;2023-02-17T15:21:50;7.27;;;6.10;;
13263;SDS011;6700;51.988;7.646;2023-02-17T15:24:21;7.00;;;6.30;;
13263;SDS011;6700;51.988;7.646;2023-02-17T15:26:56;10.20;;;6.23;;
13263;SDS011;6700;51.988;7.646;2023-02-17T15:29:25;9.17;;;6.40;;
13263;SDS011;6700;51.988;7.646;2023-02-17T15:31:56;7.60;;;6.20;;
13263;SDS011;6700;51.988;7.646;2023-02-17T15:34:33;7.33;;;6.57;;
13263;SDS011;6700;51.988;7.646;2023-02-17T15:37:03;7.73;;;7.03;;
13263;SDS011;6700;51.988;7.646;2023-02-17T15:39:33;9.73;;;6.73;;
13263;SDS011;6700;51.988;7.646;2023-02-17T15:42:03;8.50;;;6.33;;
13263;SDS011;6700;51.988;7.646;2023-02-17T15:44:41;7.30;;;6.60;;
13263;SDS011;6700;51.988;7.646;2023-02-17T15:47:16;7.90;;;6.60;;
13263;SDS011;6700;51.988;7.646;2023-02-17T15:49:46;6.30;;;5.53;;
13263;SDS011;6700;51.988;7.646;2023-02-17T15:52:16;9.03;;;6.60;;
13263;SDS011;6700;51.988;7.646;2023-02-17T15:54:48;7.47;;;6.17;;
13263;SDS011;6700;51.988;7.646;2023-02-17T15:57:19;8.20;;;5.90;;
13263;SDS011;6700;51.988;7.646;2023-02-17T15:59:55;8.67;;;5.93;;
13263;SDS011;6700;51.988;7.646;2023-02-17T16:02:25;7.13;;;6.00;;
13263;SDS011;6700;51.988;7.646;2023-02-17T16:04:54;7.83;;;6.00;;
13263;SDS011;6700;51.988;7.646;2023-02-17T16:07:23;9.10;;;5.90;;
13263;SDS011;6700;51.988;7.646;2023-02-17T16:09:54;8.27;;;6.73;;
13263;SDS011;6700;51.988;7.646;2023-02-17T16:12:31;9.67;;;7.80;;
13263;SDS011;6700;51.988;7.646;2023-02-17T16:15:00;7.60;;;5.93;;
13263;SDS011;6700;51.988;7.646;2023-02-17T16:17:30;8.07;;;7.27;;
13263;SDS011;6700;51.988;7.646;2023-02-17T16:19:59;10.00;;;6.83;;
13263;SDS011;6700;51.988;7.646;2023-02-17T16:22:34;9.50;;;6.50;;
13263;SDS011;6700;51.988;7.646;2023-02-17T16:25:04;8.27;;;6.43;;
13263;SDS011;6700;51.988;7.646;2023-02-17T16:27:33;8.63;;;7.40;;
13263;SDS011;6700;51.988;7.646;2023-02-17T16:30:12;6.73;;;6.10;;
13263;SDS011;6700;51.988;7.646;2023-02-17T16:32:43;9.67;;;7.33;;
13263;SDS011;6700;51.988;7.646;2023-02-17T16:35:17;8.20;;;6.73;;
13263;SDS011;6700;51.988;7.646;2023-02-17T16:37:54;9.40;;;6.20;;
13263;SDS011;6700;51.988;7.646;2023-02-17T16:40:25;7.97;;;6.07;;